Time;durP1;ratioP1;P1;durP2;ratioP2;P2;SDS_P1;SDS_P2;PMS_P1;PMS_P2;Temp;Humidity;BMP_temperature;BMP_pressure;BME280_temperature;BME280_humidity;BME280_pressure;Samples;Min_cycle;Max_cycle;Signal;HPM_P1;HPM_P2
2022/12/06 00:00:06;;;;;;;10.70;1.42;;;5.40;99.90;;;;;;5070208;28;20040;-84
2022/12/06 00:02:53;;;;;;;7.95;1.40;;;5.40;99.90;;;;;;5071458;28;20087;-81
2022/12/06 00:05:39;;;;;;;6.93;1.40;;;5.40;99.90;;;;;;5069231;28;20545;-83
2022/12/06 00:08:25;;;;;;;8.50;2.38;;;5.30;99.90;;;;;;5070263;28;20086;-80
2022/12/06 00:11:21;;;;;;;6.28;1.25;;;5.40;99.90;;;;;;5070687;28;20057;-88
2022/12/06 00:14:07;;;;;;;6.32;1.20;;;5.30;99.90;;;;;;5071662;28;20504;-82
2022/12/06 00:16:55;;;;;;;5.05;1.13;;;5.30;99.90;;;;;;5068909;28;20060;-84
2022/12/06 00:19:41;;;;;;;14.25;1.58;;;5.30;99.90;;;;;;5069300;28;20370;-79
2022/12/06 00:22:27;;;;;;;10.48;1.48;;;5.30;99.90;;;;;;5069289;28;20496;-78
2022/12/06 00:25:14;;;;;;;5.78;1.35;;;5.30;99.90;;;;;;5068704;28;20146;-91
2022/12/06 00:28:00;;;;;;;18.40;2.85;;;5.30;99.90;;;;;;5055473;28;20059;-87
2022/12/06 00:30:46;;;;;;;6.75;1.67;;;5.30;99.90;;;;;;5069505;28;20049;-80
2022/12/06 00:33:34;;;;;;;8.95;1.42;;;5.30;99.90;;;;;;5068860;28;20049;-79
2022/12/06 00:36:26;;;;;;;7.93;1.88;;;5.20;99.90;;;;;;5068120;28;20419;-81
2022/12/06 00:39:15;;;;;;;7.82;1.98;;;5.30;99.90;;;;;;5071227;28;20056;-88
2022/12/06 00:42:01;;;;;;;12.02;2.45;;;5.20;99.90;;;;;;5072253;28;20140;-80
2022/12/06 00:44:47;;;;;;;10.10;2.53;;;5.30;99.90;;;;;;5068450;28;20182;-81
2022/12/06 00:47:33;;;;;;;7.32;1.75;;;5.20;99.90;;;;;;5069145;28;20045;-82
2022/12/06 00:50:20;;;;;;;9.90;1.75;;;5.20;99.90;;;;;;5069838;28;20048;-86
2022/12/06 00:53:06;;;;;;;6.50;1.55;;;5.20;99.90;;;;;;5068151;28;20048;-89
2022/12/06 00:55:54;;;;;;;13.63;1.98;;;5.20;99.90;;;;;;5068022;28;20048;-87
2022/12/06 00:58:41;;;;;;;5.35;1.88;;;5.20;99.90;;;;;;5080981;28;20052;-84
2022/12/06 01:01:29;;;;;;;8.65;2.03;;;5.20;99.90;;;;;;5072496;28;20411;-81
2022/12/06 01:04:15;;;;;;;6.65;1.98;;;5.20;99.90;;;;;;5090551;28;20051;-78
2022/12/06 01:07:02;;;;;;;6.90;1.45;;;5.20;99.90;;;;;;5091192;28;20395;-83
2022/12/06 01:09:48;;;;;;;8.60;2.60;;;5.20;99.90;;;;;;5090108;28;20135;-87
2022/12/06 01:12:34;;;;;;;15.90;2.10;;;5.20;99.90;;;;;;5090076;28;20134;-84
2022/12/06 01:15:20;;;;;;;8.68;2.30;;;5.20;99.90;;;;;;5074250;28;20440;-81
2022/12/06 01:18:07;;;;;;;11.07;3.10;;;5.20;99.90;;;;;;5058642;28;20052;-87
2022/12/06 01:20:53;;;;;;;6.90;2.20;;;5.20;99.90;;;;;;5089907;28;20123;-87
2022/12/06 01:23:39;;;;;;;7.65;2.15;;;5.20;99.90;;;;;;5076861;28;20067;-84
2022/12/06 01:26:29;;;;;;;7.03;2.03;;;5.20;99.90;;;;;;5071088;28;20044;-79
2022/12/06 01:29:15;;;;;;;14.38;2.20;;;5.20;99.90;;;;;;5075900;28;20055;-84
2022/12/06 01:32:02;;;;;;;6.40;2.42;;;5.10;99.90;;;;;;5089846;28;20055;-86
2022/12/06 01:34:51;;;;;;;11.85;2.10;;;5.10;99.90;;;;;;5091195;28;20044;-80
2022/12/06 01:37:37;;;;;;;5.50;1.95;;;5.10;99.90;;;;;;5077673;28;20135;-87
2022/12/06 01:40:23;;;;;;;5.90;2.20;;;5.10;99.90;;;;;;5093809;28;20048;-81
2022/12/06 01:43:31;;;;;;;11.45;2.15;;;5.10;99.90;;;;;;5072293;28;20056;-82
2022/12/06 01:46:41;;;;;;;6.95;2.10;;;5.10;99.90;;;;;;5062319;28;20139;-82
2022/12/06 01:49:33;;;;;;;11.07;2.55;;;5.10;99.90;;;;;;5090282;28;20071;-85
2022/12/06 01:52:24;;;;;;;6.78;1.98;;;5.10;99.90;;;;;;5088311;28;20495;-87
2022/12/06 01:55:11;;;;;;;8.82;2.10;;;5.00;99.90;;;;;;5088423;28;20040;-84
2022/12/06 01:58:05;;;;;;;6.85;2.00;;;5.00;99.90;;;;;;5077139;28;20104;-79
2022/12/06 02:00:52;;;;;;;11.52;2.13;;;5.00;99.90;;;;;;5077680;28;20063;-79
2022/12/06 02:03:42;;;;;;;9.10;2.00;;;5.00;99.90;;;;;;5085198;28;20044;-79
2022/12/06 02:06:30;;;;;;;6.63;1.98;;;5.00;99.90;;;;;;5086992;28;20052;-81
2022/12/06 02:09:17;;;;;;;10.55;2.30;;;5.00;99.90;;;;;;5085129;28;20487;-88
2022/12/06 02:12:10;;;;;;;7.00;2.03;;;5.00;99.90;;;;;;5087329;28;20137;-82
2022/12/06 02:14:58;;;;;;;6.72;1.77;;;5.00;99.90;;;;;;5079008;28;20048;-85
2022/12/06 02:17:53;;;;;;;8.13;1.70;;;5.00;99.90;;;;;;5097172;28;20112;-82
2022/12/06 02:21:08;;;;;;;4.45;1.88;;;5.00;99.90;;;;;;5081965;28;20056;-84
2022/12/06 02:24:29;;;;;;;10.40;1.80;;;5.00;99.90;;;;;;5085489;28;20487;-80
2022/12/06 02:27:28;;;;;;;10.20;2.28;;;5.00;99.90;;;;;;5104412;28;20047;-80
2022/12/06 02:30:34;;;;;;;5.50;1.45;;;5.00;99.90;;;;;;5104216;28;20583;-82
2022/12/06 02:33:30;;;;;;;9.10;1.90;;;5.00;99.90;;;;;;5080973;28;20047;-83
2022/12/06 02:36:26;;;;;;;9.63;2.67;;;4.90;99.90;;;;;;5075237;28;20050;-83
2022/12/06 02:39:23;;;;;;;10.98;2.00;;;4.90;99.90;;;;;;5093987;28;20054;-85
2022/12/06 02:42:35;;;;;;;7.63;2.13;;;4.80;99.90;;;;;;5079385;28;20507;-85
2022/12/06 02:45:27;;;;;;;7.93;2.28;;;4.70;99.90;;;;;;5067752;28;20135;-87
2022/12/06 02:48:16;;;;;;;8.35;3.03;;;4.60;99.90;;;;;;5074965;28;20048;-81
2022/12/06 02:51:07;;;;;;;9.15;1.95;;;4.50;99.90;;;;;;5061051;28;20053;-85
2022/12/06 02:53:58;;;;;;;9.27;2.45;;;4.50;99.90;;;;;;5074727;28;20052;-80
2022/12/06 02:56:44;;;;;;;13.18;2.05;;;4.50;99.90;;;;;;5075408;28;20081;-82
2022/12/06 02:59:31;;;;;;;6.03;2.03;;;4.50;99.90;;;;;;5059769;28;20449;-78
2022/12/06 03:02:17;;;;;;;5.68;1.70;;;4.50;99.90;;;;;;5074288;28;20059;-82
2022/12/06 03:05:23;;;;;;;5.90;1.77;;;4.40;99.90;;;;;;5090761;28;20054;-86
2022/12/06 03:08:22;;;;;;;12.43;1.90;;;4.40;99.90;;;;;;5075338;28;20048;-83
2022/12/06 03:11:09;;;;;;;4.57;1.60;;;4.40;99.90;;;;;;5091162;28;20048;-82
2022/12/06 03:13:56;;;;;;;7.13;2.13;;;4.30;99.90;;;;;;5090962;28;20127;-83
2022/12/06 03:16:48;;;;;;;9.15;2.40;;;4.30;99.90;;;;;;5091507;28;20400;-80
2022/12/06 03:19:38;;;;;;;7.63;2.03;;;4.30;99.90;;;;;;5090460;28;20079;-87
2022/12/06 03:22:36;;;;;;;6.22;1.95;;;4.30;99.90;;;;;;5077695;28;20052;-81
2022/12/06 03:25:25;;;;;;;6.22;1.73;;;4.30;99.90;;;;;;5073646;28;20483;-80
2022/12/06 03:28:14;;;;;;;8.77;2.03;;;4.20;99.90;;;;;;5059607;28;20043;-80
2022/12/06 03:31:07;;;;;;;5.35;1.80;;;4.30;99.90;;;;;;5074213;28;20044;-85
2022/12/06 03:34:03;;;;;;;7.30;2.75;;;4.30;99.90;;;;;;5072125;28;20113;-84
2022/12/06 03:36:50;;;;;;;;;;;4.30;99.90;;;;;;5073719;28;20048;-83
2022/12/06 03:39:42;;;;;;;7.60;2.03;;;4.30;99.90;;;;;;5092971;28;19927;-80
2022/12/06 03:42:30;;;;;;;4.72;1.83;;;4.30;99.90;;;;;;5072839;28;20052;-79
2022/12/06 03:45:17;;;;;;;6.95;1.80;;;4.30;99.90;;;;;;5072784;28;20071;-79
2022/12/06 03:48:18;;;;;;;6.70;2.22;;;4.30;99.90;;;;;;5089695;28;20067;-80
2022/12/06 03:51:08;;;;;;;9.52;1.95;;;4.40;99.90;;;;;;5093181;28;20059;-80
2022/12/06 03:53:58;;;;;;;11.70;2.38;;;4.40;99.90;;;;;;5091428;28;20055;-84
2022/12/06 03:56:45;;;;;;;8.55;2.85;;;4.40;99.90;;;;;;5091199;28;20052;-82
2022/12/06 03:59:31;;;;;;;8.63;2.35;;;4.40;99.90;;;;;;5090990;28;20569;-78
2022/12/06 04:02:17;;;;;;;10.27;2.60;;;4.40;99.90;;;;;;5072063;28;20048;-79
2022/12/06 04:05:04;;;;;;;7.30;1.92;;;4.40;99.90;;;;;;5073045;28;20040;-80
2022/12/06 04:07:50;;;;;;;6.68;2.33;;;4.50;99.90;;;;;;5072011;28;20040;-86
2022/12/06 04:10:36;;;;;;;6.55;1.52;;;4.50;99.90;;;;;;5090577;28;20044;-80
2022/12/06 04:13:23;;;;;;;6.05;1.73;;;4.60;99.90;;;;;;5089948;28;20051;-79
2022/12/06 04:19:14;;;;;;;7.30;1.67;;;4.60;99.90;;;;;;5090188;28;20083;-80
2022/12/06 04:25:05;;;;;;;4.95;1.27;;;4.70;99.90;;;;;;5090107;28;20503;-86
2022/12/06 04:40:11;;;;;;;3.72;0.55;;;4.60;99.90;;;;;;5071659;28;20075;-84
2022/12/06 04:46:02;;;;;;;3.72;2.35;;;4.60;99.90;;;;;;5071443;28;20193;-80
2022/12/06 04:48:48;;;;;;;2.15;0.63;;;4.60;99.90;;;;;;5059740;28;20044;-86
2022/12/06 04:51:35;;;;;;;2.88;0.85;;;4.60;99.90;;;;;;5090738;28;20474;-83
2022/12/06 04:54:22;;;;;;;8.35;0.93;;;4.50;99.90;;;;;;5073167;28;20083;-87
2022/12/06 04:57:11;;;;;;;4.65;1.20;;;4.50;99.90;;;;;;5058388;28;20048;-78
2022/12/06 04:59:57;;;;;;;3.30;0.80;;;4.50;99.90;;;;;;5089932;28;20059;-85
2022/12/06 05:02:44;;;;;;;4.80;1.15;;;4.40;99.90;;;;;;5074565;28;20044;-81
2022/12/06 05:05:30;;;;;;;10.02;1.25;;;4.40;99.90;;;;;;5072695;28;20109;-82
2022/12/06 05:08:16;;;;;;;8.65;1.45;;;4.40;99.90;;;;;;5075031;28;20043;-84
2022/12/06 05:11:02;;;;;;;8.75;1.30;;;4.40;99.90;;;;;;5090970;28;20052;-78
2022/12/06 05:13:48;;;;;;;7.18;1.95;;;4.40;99.90;;;;;;5090358;28;20043;-83
2022/12/06 05:16:35;;;;;;;8.32;1.88;;;4.40;99.90;;;;;;5071979;28;20043;-81
2022/12/06 05:19:21;;;;;;;5.40;1.38;;;4.40;99.90;;;;;;5090543;28;20048;-79
2022/12/06 05:22:07;;;;;;;8.85;1.50;;;4.30;99.90;;;;;;5073420;28;20080;-85
2022/12/06 05:24:53;;;;;;;4.88;1.30;;;4.20;99.90;;;;;;5073506;28;20048;-80
2022/12/06 05:27:40;;;;;;;7.25;1.40;;;4.20;99.90;;;;;;5073886;28;20605;-80
2022/12/06 05:30:26;;;;;;;6.00;1.17;;;4.10;99.90;;;;;;5091074;28;20048;-84
2022/12/06 05:33:12;;;;;;;4.80;1.02;;;4.00;99.90;;;;;;5060948;28;20112;-78
2022/12/06 05:35:58;;;;;;;5.03;1.00;;;4.00;99.90;;;;;;5095477;28;20044;-83
2022/12/06 05:38:49;;;;;;;7.18;2.38;;;4.00;99.90;;;;;;5076442;28;20052;-78
2022/12/06 05:41:35;;;;;;;6.47;1.23;;;3.90;99.90;;;;;;5076084;28;20062;-79
2022/12/06 05:44:21;;;;;;;5.55;1.30;;;3.80;99.90;;;;;;5095359;28;20102;-81
2022/12/06 05:47:07;;;;;;;3.30;1.13;;;3.80;99.90;;;;;;5078574;28;20097;-84
2022/12/06 05:49:54;;;;;;;4.25;1.73;;;3.70;99.90;;;;;;5077697;28;20048;-81
2022/12/06 05:52:41;;;;;;;4.10;0.82;;;3.60;99.90;;;;;;5093683;28;20496;-82
2022/12/06 05:55:27;;;;;;;6.25;1.10;;;3.50;99.90;;;;;;5077429;28;20113;-83
2022/12/06 05:58:14;;;;;;;6.68;1.70;;;3.40;99.90;;;;;;5093632;28;20044;-77
2022/12/06 06:01:00;;;;;;;6.35;1.17;;;3.30;99.90;;;;;;5095288;28;20044;-85
2022/12/06 06:03:46;;;;;;;5.75;1.50;;;3.20;99.90;;;;;;5079221;28;20054;-87
2022/12/06 06:06:32;;;;;;;10.55;3.00;;;3.10;99.90;;;;;;5093588;28;20047;-87
2022/12/06 06:09:19;;;;;;;8.52;3.90;;;3.00;99.90;;;;;;5061824;28;20071;-84
2022/12/06 06:12:05;;;;;;;8.02;2.00;;;3.00;99.90;;;;;;5078879;28;20055;-85
2022/12/06 06:14:52;;;;;;;6.70;1.85;;;2.90;99.90;;;;;;5094555;28;20040;-82
2022/12/06 06:17:39;;;;;;;7.78;1.92;;;2.80;99.90;;;;;;5093489;28;20055;-88
2022/12/06 06:20:25;;;;;;;3.95;1.50;;;2.70;99.90;;;;;;5092611;28;20560;-79
2022/12/06 06:23:11;;;;;;;7.78;1.13;;;2.70;99.90;;;;;;5075809;28;20112;-78
2022/12/06 06:25:57;;;;;;;6.72;1.88;;;2.70;99.90;;;;;;5077467;28;20052;-79
2022/12/06 06:28:43;;;;;;;8.68;2.22;;;2.60;99.90;;;;;;5092630;28;20050;-79
2022/12/06 06:31:29;;;;;;;6.40;2.00;;;2.50;99.90;;;;;;5074600;28;20142;-83
2022/12/06 06:34:16;;;;;;;8.07;1.70;;;2.50;99.90;;;;;;5061797;28;20044;-80
2022/12/06 06:37:02;;;;;;;7.47;1.90;;;2.50;99.90;;;;;;5074455;28;20415;-86
2022/12/06 06:39:48;;;;;;;10.02;1.90;;;2.40;99.90;;;;;;5059908;28;20131;-87
2022/12/06 06:42:34;;;;;;;8.25;1.77;;;2.40;99.90;;;;;;5077447;28;20117;-86
2022/12/06 06:45:20;;;;;;;4.22;1.60;;;2.40;99.90;;;;;;5073862;28;20105;-86
2022/12/06 06:48:06;;;;;;;6.82;1.63;;;2.30;99.90;;;;;;5092566;28;20044;-81
2022/12/06 06:50:53;;;;;;;6.78;1.63;;;2.40;99.90;;;;;;5093532;28;20047;-82
2022/12/06 06:53:39;;;;;;;8.00;1.88;;;2.40;99.90;;;;;;5074832;28;20052;-84
2022/12/06 06:56:25;;;;;;;6.95;1.83;;;2.40;99.90;;;;;;5076816;28;20044;-82
2022/12/06 06:59:11;;;;;;;5.43;1.60;;;2.40;99.90;;;;;;5094181;28;20048;-87
2022/12/06 07:01:57;;;;;;;4.82;1.77;;;2.50;99.90;;;;;;5073878;28;20048;-84
2022/12/06 07:04:44;;;;;;;7.50;1.70;;;2.50;99.90;;;;;;5073900;28;20047;-79
2022/12/06 07:07:30;;;;;;;6.22;1.38;;;2.50;99.90;;;;;;5074633;28;20059;-78
2022/12/06 07:10:17;;;;;;;5.72;2.05;;;2.50;99.90;;;;;;5078387;28;20048;-77
2022/12/06 07:13:03;;;;;;;5.32;1.63;;;2.50;99.90;;;;;;5077897;28;20048;-78
2022/12/06 07:15:50;;;;;;;3.80;1.02;;;2.50;99.90;;;;;;5079444;28;20135;-84
2022/12/06 07:18:36;;;;;;;6.03;1.60;;;2.40;99.90;;;;;;5074317;28;20492;-80
2022/12/06 07:21:22;;;;;;;11.30;2.35;;;2.40;99.90;;;;;;5074318;28;20070;-84
2022/12/06 07:24:08;;;;;;;7.45;2.05;;;2.40;99.90;;;;;;5091801;28;20131;-87
2022/12/06 07:26:56;;;;;;;6.13;1.67;;;2.40;99.90;;;;;;5074019;28;20523;-84
2022/12/06 07:29:42;;;;;;;5.90;1.80;;;2.40;99.90;;;;;;5094127;28;20135;-83
2022/12/06 07:32:32;;;;;;;3.28;1.58;;;2.30;99.90;;;;;;5074781;28;20094;-84
2022/12/06 07:35:18;;;;;;;12.70;2.17;;;2.30;99.90;;;;;;5092031;28;20411;-83
2022/12/06 07:38:04;;;;;;;4.22;1.50;;;2.30;99.90;;;;;;5072073;28;20140;-86
2022/12/06 07:40:50;;;;;;;7.97;1.83;;;2.30;99.90;;;;;;5074872;28;20105;-80
2022/12/06 07:46:41;;;;;;;10.75;2.55;;;2.30;99.90;;;;;;5090705;28;20495;-85
2022/12/06 07:49:28;;;;;;;5.00;1.42;;;2.40;99.90;;;;;;5073459;28;20054;-85
2022/12/06 07:52:14;;;;;;;9.57;1.60;;;2.40;99.90;;;;;;5091334;28;20495;-85
2022/12/06 07:55:01;;;;;;;7.63;2.13;;;2.50;99.90;;;;;;5091826;28;20040;-80
2022/12/06 07:57:47;;;;;;;6.70;1.70;;;2.50;99.90;;;;;;5093387;28;20051;-81
2022/12/06 08:00:35;;;;;;;4.82;1.63;;;2.60;99.90;;;;;;5091774;28;20087;-78
2022/12/06 08:03:21;;;;;;;8.38;1.77;;;2.70;99.90;;;;;;5090749;28;20099;-81
2022/12/06 08:06:07;;;;;;;5.25;1.70;;;2.70;99.90;;;;;;5072545;28;20048;-78
2022/12/06 08:08:53;;;;;;;8.23;1.58;;;2.80;99.90;;;;;;5073291;28;20052;-81
2022/12/06 08:11:39;;;;;;;5.95;1.60;;;2.80;99.90;;;;;;5098305;28;20122;-84
2022/12/06 08:14:26;;;;;;;6.35;1.70;;;2.90;99.90;;;;;;5075573;28;20040;-87
2022/12/06 08:17:12;;;;;;;6.47;1.67;;;2.90;99.90;;;;;;5072793;28;20066;-77
2022/12/06 08:19:58;;;;;;;8.25;2.10;;;3.00;99.90;;;;;;5089965;28;20052;-85
2022/12/06 08:22:44;;;;;;;5.60;1.70;;;3.10;99.90;;;;;;5089936;28;20113;-82
2022/12/06 08:25:30;;;;;;;5.72;1.48;;;3.20;99.90;;;;;;5076011;28;20098;-83
2022/12/06 08:28:16;;;;;;;9.05;1.60;;;3.30;99.90;;;;;;5094279;28;20414;-83
2022/12/06 08:31:15;;;;;;;10.77;1.60;;;3.50;99.90;;;;;;5072733;28;20052;-84
2022/12/06 08:34:02;;;;;;;11.63;2.22;;;3.60;99.90;;;;;;5072328;28;20048;-81
2022/12/06 08:36:48;;;;;;;9.57;2.13;;;3.70;99.90;;;;;;5072228;28;20096;-81
2022/12/06 08:39:34;;;;;;;9.00;1.58;;;3.80;99.90;;;;;;5090948;28;20056;-77
2022/12/06 08:42:20;;;;;;;8.82;2.10;;;3.80;99.90;;;;;;5092605;28;20051;-82
2022/12/06 08:45:07;;;;;;;6.25;1.15;;;3.90;99.90;;;;;;5072268;28;20083;-87
2022/12/06 08:47:53;;;;;;;7.65;1.50;;;4.00;99.90;;;;;;5058133;28;20048;-80
2022/12/06 08:50:39;;;;;;;8.73;1.77;;;4.10;99.90;;;;;;5089828;28;20044;-78
2022/12/06 08:53:25;;;;;;;11.63;1.52;;;4.30;99.90;;;;;;5089842;28;20047;-82
2022/12/06 08:56:11;;;;;;;6.38;1.60;;;4.40;99.90;;;;;;5089623;28;20051;-80
2022/12/06 08:58:58;;;;;;;9.00;2.17;;;4.50;99.90;;;;;;5073472;28;20052;-81
2022/12/06 09:01:45;;;;;;;6.75;2.42;;;4.60;99.90;;;;;;5091764;28;20177;-81
2022/12/06 09:04:31;;;;;;;5.15;2.50;;;4.70;99.90;;;;;;5089484;28;20376;-82
2022/12/06 09:07:18;;;;;;;6.32;2.33;;;4.70;99.90;;;;;;5090807;28;20047;-84
2022/12/06 09:10:05;;;;;;;8.32;2.63;;;4.80;99.90;;;;;;5094264;28;20427;-81
2022/12/06 09:12:51;;;;;;;8.07;2.47;;;4.90;99.90;;;;;;5079171;28;20059;-85
2022/12/06 09:15:38;;;;;;;8.77;2.38;;;5.00;99.90;;;;;;5079599;28;20079;-83
2022/12/06 09:18:24;;;;;;;6.82;2.67;;;5.10;99.90;;;;;;5076405;28;20055;-82
2022/12/06 09:21:16;;;;;;;8.13;2.58;;;5.20;99.90;;;;;;5075967;28;20044;-82
2022/12/06 09:24:03;;;;;;;12.07;2.70;;;5.50;99.90;;;;;;5075176;28;20044;-85
2022/12/06 09:26:49;;;;;;;6.28;2.17;;;5.60;99.90;;;;;;5077132;28;20083;-83
2022/12/06 09:29:36;;;;;;;8.02;3.35;;;5.70;99.90;;;;;;5078345;28;20052;-78
2022/12/06 09:32:22;;;;;;;7.03;3.22;;;5.60;99.90;;;;;;5095031;28;20044;-81
2022/12/06 09:35:08;;;;;;;11.43;2.17;;;5.70;99.90;;;;;;5075304;28;20040;-78
2022/12/06 09:37:55;;;;;;;10.88;2.40;;;5.70;99.90;;;;;;5093915;28;20592;-85
2022/12/06 09:41:09;;;;;;;5.35;1.95;;;5.70;99.90;;;;;;5093392;28;20089;-83
2022/12/06 09:44:05;;;;;;;6.93;1.90;;;5.70;99.90;;;;;;5096077;28;20063;-82
2022/12/06 09:47:21;;;;;;;6.63;2.17;;;5.70;99.90;;;;;;5060829;28;20044;-82
2022/12/06 09:50:46;;;;;;;8.07;3.17;;;5.90;99.90;;;;;;5094276;28;20468;-82
2022/12/06 09:53:54;;;;;;;6.63;2.40;;;6.60;99.90;;;;;;5093763;28;20047;-86
2022/12/06 09:56:44;;;;;;;7.63;2.00;;;7.00;99.90;;;;;;5074778;28;20063;-78
2022/12/06 09:59:48;;;;;;;5.57;2.10;;;7.60;99.90;;;;;;5076396;28;20105;-80
2022/12/06 10:02:59;;;;;;;8.98;1.90;;;8.20;99.90;;;;;;5074975;28;20059;-86
2022/12/06 10:06:07;;;;;;;7.35;1.70;;;8.20;99.90;;;;;;5061276;28;20504;-82
2022/12/06 10:09:12;;;;;;;3.97;1.50;;;8.10;99.90;;;;;;5093439;28;20044;-82
2022/12/06 10:12:10;;;;;;;5.63;1.63;;;8.40;99.90;;;;;;5093141;28;20059;-80
2022/12/06 10:15:39;;;;;;;4.32;1.20;;;8.80;99.90;;;;;;5075271;28;20048;-81
2022/12/06 10:18:41;;;;;;;5.00;1.20;;;9.00;99.90;;;;;;5093222;28;20108;-87
2022/12/06 10:21:33;;;;;;;5.10;1.05;;;9.00;99.90;;;;;;5092314;28;20048;-85
2022/12/06 10:24:19;;;;;;;4.30;1.50;;;9.70;99.90;;;;;;5092843;28;20515;-81
2022/12/06 10:27:22;;;;;;;4.95;1.30;;;10.20;99.90;;;;;;5074988;28;20510;-79
2022/12/06 10:30:13;;;;;;;3.85;1.52;;;9.80;99.90;;;;;;5075002;28;20096;-80
2022/12/06 10:33:37;;;;;;;4.43;1.67;;;9.20;99.90;;;;;;5094779;28;20612;-86
2022/12/06 10:37:01;;;;;;;4.28;1.00;;;9.00;99.90;;;;;;5093678;28;20126;-79
2022/12/06 10:39:52;;;;;;;7.68;1.60;;;9.50;99.90;;;;;;5092661;28;20491;-79
2022/12/06 10:42:54;;;;;;;4.38;0.85;;;9.80;99.90;;;;;;5091562;28;20494;-79
2022/12/06 10:49:02;;;;;;;4.72;0.63;;;9.70;99.90;;;;;;5073914;28;20058;-86
2022/12/06 10:51:53;;;;;;;2.63;0.85;;;9.90;99.90;;;;;;5093290;28;20056;-81
2022/12/06 10:54:57;;;;;;;3.33;0.80;;;9.60;99.90;;;;;;5092299;28;20471;-79
2022/12/06 10:57:55;;;;;;;3.75;0.80;;;9.40;99.90;;;;;;5092310;28;20051;-89
2022/12/06 11:00:57;;;;;;;5.38;0.70;;;9.60;99.90;;;;;;5095221;28;20056;-89
2022/12/06 11:04:06;;;;;;;4.40;1.52;;;10.30;99.90;;;;;;5076209;28;20048;-80
2022/12/06 11:06:57;;;;;;;2.72;0.85;;;11.50;99.90;;;;;;5091117;28;20105;-86
2022/12/06 11:09:48;;;;;;;4.40;0.70;;;11.60;99.90;;;;;;5059538;28;20135;-80
2022/12/06 11:12:37;;;;;;;4.80;0.70;;;11.40;99.90;;;;;;5074556;28;20117;-89
2022/12/06 11:15:28;;;;;;;2.50;0.85;;;11.30;99.90;;;;;;5078073;28;20060;-84
2022/12/06 11:18:16;;;;;;;9.95;1.70;;;11.40;99.90;;;;;;5092669;28;20078;-81
2022/12/06 11:21:19;;;;;;;6.20;1.63;;;11.50;99.90;;;;;;5073844;28;20070;-79
2022/12/06 11:24:24;;;;;;;3.72;1.60;;;11.40;99.90;;;;;;5093693;28;20052;-87
2022/12/06 11:27:14;;;;;;;3.55;1.58;;;11.40;99.90;;;;;;5093627;28;20036;-88
2022/12/06 11:30:13;;;;;;;4.50;1.10;;;11.70;99.90;;;;;;5096198;28;20530;-81
2022/12/06 11:33:00;;;;;;;5.88;1.80;;;12.50;99.90;;;;;;5093743;28;20044;-80
2022/12/06 11:35:47;;;;;;;6.68;1.83;;;11.60;99.90;;;;;;5073124;28;20404;-79
2022/12/06 11:38:35;;;;;;;2.85;1.05;;;10.80;99.90;;;;;;5074227;28;20411;-89
2022/12/06 11:41:29;;;;;;;6.90;1.10;;;10.20;99.90;;;;;;5079131;28;20048;-80
2022/12/06 11:44:20;;;;;;;4.00;1.27;;;9.40;99.90;;;;;;5081354;28;20052;-78
2022/12/06 11:47:10;;;;;;;6.35;1.20;;;8.80;99.90;;;;;;5081739;28;20048;-85
2022/12/06 11:49:56;;;;;;;8.20;1.23;;;8.40;99.90;;;;;;5085433;28;20048;-80
2022/12/06 11:52:58;;;;;;;4.40;1.33;;;8.30;99.90;;;;;;5082099;28;20112;-85
2022/12/06 11:55:51;;;;;;;3.38;1.35;;;8.10;99.90;;;;;;5064894;28;20048;-86
2022/12/06 11:59:07;;;;;;;8.23;1.92;;;7.90;99.90;;;;;;5098060;28;20044;-81
2022/12/06 12:02:02;;;;;;;4.78;1.60;;;7.80;99.90;;;;;;5080581;28;20055;-79
2022/12/06 12:04:48;;;;;;;7.50;1.55;;;7.90;99.90;;;;;;5097013;28;20087;-81
2022/12/06 12:07:37;;;;;;;6.28;1.85;;;8.00;99.90;;;;;;5080902;28;20143;-84
2022/12/06 12:10:33;;;;;;;5.75;1.35;;;8.50;99.90;;;;;;5080464;28;20043;-86
2022/12/06 12:16:31;;;;;;;9.32;2.00;;;9.00;99.90;;;;;;5092756;28;20054;-86
2022/12/06 12:19:33;;;;;;;3.22;1.25;;;9.00;99.90;;;;;;5076014;28;20075;-89
2022/12/06 12:22:33;;;;;;;4.90;1.20;;;9.00;99.90;;;;;;5096631;28;20570;-82
2022/12/06 12:25:24;;;;;;;6.50;1.40;;;8.70;99.90;;;;;;5093372;28;20106;-86
2022/12/06 12:28:37;;;;;;;5.97;1.67;;;8.50;99.90;;;;;;5090888;28;20047;-87
2022/12/06 12:31:25;;;;;;;6.53;1.38;;;8.10;99.90;;;;;;5074290;28;20063;-87
2022/12/06 12:34:30;;;;;;;3.60;1.40;;;8.10;99.90;;;;;;5092738;28;20044;-83
2022/12/06 12:37:20;;;;;;;4.55;1.17;;;7.90;99.90;;;;;;5096955;28;20044;-80
2022/12/06 12:40:25;;;;;;;4.60;1.77;;;7.90;99.90;;;;;;5092588;28;20141;-80
2022/12/06 12:43:11;;;;;;;5.47;1.70;;;7.80;99.90;;;;;;5057361;28;20075;-80
2022/12/06 12:46:16;;;;;;;4.95;1.40;;;7.80;99.90;;;;;;5076692;28;20515;-88
2022/12/06 12:49:27;;;;;;;3.28;1.10;;;7.80;99.90;;;;;;5090684;28;20109;-88
2022/12/06 12:52:38;;;;;;;4.80;1.10;;;7.70;99.90;;;;;;5077861;28;20048;-82
2022/12/06 12:55:29;;;;;;;4.35;1.13;;;7.70;99.90;;;;;;5092564;28;20092;-82
2022/12/06 12:58:16;;;;;;;4.07;1.13;;;7.70;99.90;;;;;;5089260;28;20060;-87
2022/12/06 13:01:06;;;;;;;2.90;0.80;;;7.70;99.90;;;;;;5090813;28;20052;-85
2022/12/06 13:04:03;;;;;;;4.45;0.98;;;7.70;99.90;;;;;;5075665;28;20048;-79
2022/12/06 13:06:58;;;;;;;5.28;1.05;;;7.60;99.90;;;;;;5073639;28;20642;-84
2022/12/06 13:09:59;;;;;;;3.08;0.90;;;7.60;99.90;;;;;;5077015;28;20052;-80
2022/12/06 13:12:49;;;;;;;3.75;0.93;;;7.60;99.90;;;;;;5075543;28;20044;-82
2022/12/06 13:15:48;;;;;;;3.15;0.93;;;7.70;99.90;;;;;;5072020;28;20052;-82
2022/12/06 13:18:41;;;;;;;3.10;0.93;;;7.90;99.90;;;;;;5071842;28;20055;-86
2022/12/06 13:21:41;;;;;;;2.70;1.00;;;7.90;99.90;;;;;;5090641;28;20103;-87
2022/12/06 13:24:30;;;;;;;5.72;1.02;;;8.00;99.90;;;;;;5091219;28;20055;-83
2022/12/06 13:27:19;;;;;;;3.47;1.20;;;7.90;99.90;;;;;;5081311;28;20056;-83
2022/12/06 13:30:15;;;;;;;6.22;1.10;;;7.90;99.90;;;;;;5084748;28;20110;-87
2022/12/06 13:33:23;;;;;;;6.10;1.30;;;8.00;99.90;;;;;;5092502;28;20047;-84
2022/12/06 13:36:12;;;;;;;4.97;1.20;;;8.10;99.90;;;;;;5094198;28;20048;-88
2022/12/06 13:39:30;;;;;;;6.97;1.30;;;8.10;99.90;;;;;;5090859;28;20048;-89
2022/12/06 13:42:41;;;;;;;3.28;1.05;;;8.20;99.90;;;;;;5099551;28;20464;-86
2022/12/06 13:46:13;;;;;;;2.60;0.90;;;8.00;99.90;;;;;;5099134;28;20052;-81
2022/12/06 13:49:01;;;;;;;2.22;0.90;;;7.90;99.90;;;;;;5106917;28;20076;-79
2022/12/06 13:51:47;;;;;;;3.47;1.55;;;7.80;99.90;;;;;;5084125;28;20052;-81
2022/12/06 13:54:33;;;;;;;3.63;1.20;;;7.70;99.90;;;;;;5075075;28;20055;-79
2022/12/06 13:57:23;;;;;;;7.20;1.30;;;7.60;99.90;;;;;;5079060;28;20052;-83
2022/12/06 14:00:33;;;;;;;7.68;1.60;;;7.50;99.90;;;;;;5079282;28;20052;-77
2022/12/06 14:03:19;;;;;;;3.42;1.50;;;7.40;99.90;;;;;;5075499;28;20465;-82
2022/12/06 14:06:11;;;;;;;12.40;2.80;;;7.30;99.90;;;;;;5075991;28;20044;-78
2022/12/06 14:08:59;;;;;;;5.32;1.00;;;7.20;99.90;;;;;;5074125;28;20040;-81
2022/12/06 14:11:45;;;;;;;4.07;1.15;;;7.20;99.90;;;;;;5074606;28;20056;-79
2022/12/06 14:14:32;;;;;;;4.30;1.17;;;7.10;99.90;;;;;;5093760;28;20040;-85
2022/12/06 14:17:18;;;;;;;4.68;1.27;;;7.10;99.90;;;;;;5094022;28;20083;-78
2022/12/06 14:20:23;;;;;;;6.28;1.48;;;7.10;99.90;;;;;;5095188;28;20048;-86
2022/12/06 14:23:29;;;;;;;4.22;1.10;;;7.10;99.90;;;;;;5060237;28;20483;-79
2022/12/06 14:26:25;;;;;;;3.70;1.15;;;7.20;99.90;;;;;;5074535;28;20145;-79
2022/12/06 14:29:23;;;;;;;4.43;1.17;;;7.20;99.90;;;;;;5074756;28;20131;-79
2022/12/06 14:32:10;;;;;;;5.22;0.98;;;7.20;99.90;;;;;;5061015;28;20052;-85
2022/12/06 14:35:05;;;;;;;3.70;1.00;;;7.20;99.90;;;;;;5096592;28;20066;-81
2022/12/06 14:37:55;;;;;;;5.03;1.65;;;7.20;99.90;;;;;;5074753;28;20040;-82
2022/12/06 14:43:47;;;;;;;6.60;1.23;;;7.10;99.90;;;;;;5092523;28;20044;-80
2022/12/06 14:46:34;;;;;;;2.28;0.95;;;7.10;99.90;;;;;;5060627;28;20081;-81
2022/12/06 14:52:29;;;;;;;4.85;0.77;;;7.10;99.90;;;;;;5074736;28;20640;-82
2022/12/06 14:55:17;;;;;;;3.28;0.80;;;7.00;99.90;;;;;;5093495;28;20418;-79
2022/12/06 14:58:15;;;;;;;1.38;0.50;;;7.00;99.90;;;;;;5074159;28;20063;-88
2022/12/06 15:01:04;;;;;;;3.40;0.60;;;7.00;99.90;;;;;;5070217;28;20048;-80
2022/12/06 15:04:06;;;;;;;2.55;0.55;;;7.00;99.90;;;;;;5071520;28;20522;-88
2022/12/06 15:06:56;;;;;;;2.63;0.75;;;7.00;99.90;;;;;;5074065;28;20131;-80
2022/12/06 15:09:44;;;;;;;2.42;0.50;;;7.00;99.90;;;;;;5070173;28;20075;-87
2022/12/06 15:15:41;;;;;;;3.60;1.00;;;6.90;99.90;;;;;;5071976;28;20132;-80
2022/12/06 15:18:44;;;;;;;1.75;0.40;;;6.90;99.90;;;;;;5072500;28;20084;-80
2022/12/06 15:21:31;;;;;;;254.20;29.17;;;6.80;99.90;;;;;;5073527;28;20544;-87
2022/12/06 15:24:20;;;;;;;243.02;27.73;;;6.80;99.90;;;;;;5069556;28;20052;-79
2022/12/06 15:27:06;;;;;;;107.80;11.07;;;6.70;99.90;;;;;;5070857;28;20131;-78
2022/12/06 15:29:52;;;;;;;12.68;1.52;;;6.70;99.90;;;;;;5070921;28;20040;-85
2022/12/06 15:32:39;;;;;;;6.60;1.00;;;6.60;99.90;;;;;;5071832;28;20496;-89
2022/12/06 15:35:25;;;;;;;2.08;0.80;;;6.60;99.90;;;;;;5057035;28;20149;-79
2022/12/06 15:38:11;;;;;;;2.60;0.80;;;6.50;99.90;;;;;;5058659;28;20048;-81
2022/12/06 15:40:58;;;;;;;2.72;0.70;;;6.50;99.90;;;;;;5055277;28;20041;-79